Time;durP1;ratioP1;P1;durP2;ratioP2;P2;SDS_P1;SDS_P2;PMS_P1;PMS_P2;Temp;Humidity;BMP_temperature;BMP_pressure;BME280_temperature;BME280_humidity;BME280_pressure;Samples;Min_cycle;Max_cycle;Signal;HPM_P1;HPM_P2
2021/08/31 00:02:35;;;;;;;4.03;2.60;;;21.10;96.70;;;;;;4956950;28;20043;-79
2021/08/31 00:05:04;;;;;;;2.85;2.20;;;21.00;96.70;;;;;;4960671;28;20046;-78
2021/08/31 00:07:53;;;;;;;2.58;1.85;;;21.10;96.70;;;;;;4966956;28;20051;-79
2021/08/31 00:10:21;;;;;;;3.55;2.08;;;21.10;96.70;;;;;;4959395;28;20062;-79
2021/08/31 00:12:51;;;;;;;2.45;2.00;;;21.10;96.70;;;;;;4960870;28;20047;-79
2021/08/31 00:15:19;;;;;;;2.83;2.20;;;21.10;96.70;;;;;;4957834;28;20074;-79
2021/08/31 00:17:47;;;;;;;2.60;2.08;;;21.10;96.70;;;;;;4958873;28;20042;-79
2021/08/31 00:20:15;;;;;;;3.72;2.20;;;21.20;96.70;;;;;;4943669;28;20137;-79
2021/08/31 00:22:43;;;;;;;2.33;1.77;;;21.30;96.70;;;;;;4975694;28;20424;-79
2021/08/31 00:25:12;;;;;;;2.53;1.90;;;21.30;96.70;;;;;;4962200;28;20051;-79
2021/08/31 00:27:40;;;;;;;2.75;1.70;;;21.30;96.70;;;;;;4958711;28;20310;-80
2021/08/31 00:30:12;;;;;;;4.43;2.22;;;21.30;96.70;;;;;;4963972;28;20045;-80
2021/08/31 00:32:41;;;;;;;2.58;1.85;;;21.30;96.70;;;;;;4947266;28;20070;-80
2021/08/31 00:35:10;;;;;;;3.70;2.42;;;21.30;96.70;;;;;;4945557;28;20072;-80
2021/08/31 00:37:43;;;;;;;3.53;1.85;;;21.30;96.70;;;;;;4967062;28;20044;-80
2021/08/31 00:40:13;;;;;;;5.00;1.90;;;21.20;96.70;;;;;;4959071;28;20050;-80
2021/08/31 00:42:41;;;;;;;3.13;1.90;;;21.10;96.70;;;;;;4956222;28;20078;-80
2021/08/31 00:45:11;;;;;;;5.10;2.08;;;21.10;96.70;;;;;;4956273;28;20047;-80
2021/08/31 00:47:40;;;;;;;2.78;2.15;;;21.20;96.70;;;;;;4962759;28;20055;-81
2021/08/31 00:50:10;;;;;;;2.25;1.88;;;21.10;96.70;;;;;;4963617;28;20053;-80
2021/08/31 00:52:40;;;;;;;3.55;2.33;;;21.00;96.70;;;;;;4964127;28;20054;-81
2021/08/31 00:55:18;;;;;;;2.50;2.08;;;20.90;96.70;;;;;;4957966;28;20043;-81
2021/08/31 00:58:02;;;;;;;7.18;2.60;;;20.90;96.70;;;;;;4946513;28;20551;-81
2021/08/31 01:00:52;;;;;;;3.13;2.08;;;20.90;96.70;;;;;;4963189;28;20051;-80
2021/08/31 01:03:35;;;;;;;3.58;2.20;;;20.90;96.70;;;;;;4964183;28;20409;-81
2021/08/31 01:06:04;;;;;;;3.78;2.22;;;20.80;96.70;;;;;;4962547;28;20505;-80
2021/08/31 01:08:32;;;;;;;3.75;2.42;;;20.80;96.70;;;;;;4962491;28;20092;-82
2021/08/31 01:11:02;;;;;;;5.75;2.42;;;20.80;96.70;;;;;;4962790;28;20051;-81
2021/08/31 01:13:31;;;;;;;4.47;2.47;;;20.80;96.70;;;;;;4949361;28;20051;-80
2021/08/31 01:16:03;;;;;;;5.70;2.67;;;20.70;96.70;;;;;;4964544;28;20565;-80
2021/08/31 01:18:34;;;;;;;2.63;2.30;;;20.70;96.70;;;;;;4960861;28;20051;-79
2021/08/31 01:21:04;;;;;;;3.53;2.33;;;20.60;96.70;;;;;;4967699;28;20054;-80
2021/08/31 01:23:36;;;;;;;3.28;2.25;;;20.60;96.70;;;;;;4961735;28;20102;-80
2021/08/31 01:26:16;;;;;;;3.50;2.50;;;20.60;96.70;;;;;;4963194;28;20097;-80
2021/08/31 01:28:53;;;;;;;3.63;2.30;;;20.60;96.70;;;;;;4961981;28;20571;-82
2021/08/31 01:31:34;;;;;;;3.08;2.20;;;20.60;96.70;;;;;;4965505;28;20049;-80
2021/08/31 01:34:09;;;;;;;5.93;2.70;;;20.50;96.70;;;;;;4971911;28;20045;-80
2021/08/31 01:36:37;;;;;;;2.80;1.85;;;20.40;96.70;;;;;;4961319;28;20047;-81
2021/08/31 01:39:06;;;;;;;3.63;2.63;;;20.50;96.70;;;;;;4959139;28;20050;-80
2021/08/31 01:42:27;;;;;;;3.22;2.47;;;20.50;96.70;;;;;;4944631;28;20051;-79
2021/08/31 01:44:57;;;;;;;3.58;2.28;;;20.50;96.70;;;;;;4973132;28;20134;-76
2021/08/31 01:47:25;;;;;;;3.70;2.40;;;20.50;96.70;;;;;;4992304;28;20055;-77
2021/08/31 01:49:54;;;;;;;3.20;1.80;;;20.50;96.70;;;;;;4959700;28;20066;-76
2021/08/31 01:52:24;;;;;;;2.67;2.00;;;20.50;96.70;;;;;;4970344;28;20050;-76
2021/08/31 01:54:53;;;;;;;2.70;2.00;;;20.60;96.70;;;;;;4965882;28;20043;-77
2021/08/31 01:57:23;;;;;;;3.17;2.10;;;20.60;96.70;;;;;;4945275;28;20046;-77
2021/08/31 01:59:54;;;;;;;2.83;1.95;;;20.60;96.70;;;;;;4940015;28;20639;-76
2021/08/31 02:02:25;;;;;;;3.95;1.80;;;20.50;96.70;;;;;;4972517;28;20038;-76
2021/08/31 02:04:56;;;;;;;3.83;2.35;;;20.40;96.70;;;;;;4957565;28;20581;-77
2021/08/31 02:07:26;;;;;;;4.63;2.33;;;20.30;96.70;;;;;;4975623;28;20193;-76
2021/08/31 02:09:56;;;;;;;3.38;2.00;;;20.30;96.70;;;;;;4947603;28;20247;-77
2021/08/31 02:12:26;;;;;;;4.90;2.40;;;20.30;96.70;;;;;;4959882;28;20113;-77
2021/08/31 02:14:56;;;;;;;2.67;2.17;;;20.30;96.70;;;;;;4948071;28;20074;-76
2021/08/31 02:17:27;;;;;;;3.22;1.92;;;20.30;96.70;;;;;;4958021;28;20058;-76
2021/08/31 02:19:57;;;;;;;3.95;1.70;;;20.30;96.70;;;;;;4961715;28;20530;-77
2021/08/31 02:22:27;;;;;;;2.78;2.15;;;20.20;96.70;;;;;;4959955;28;20042;-77
2021/08/31 02:24:57;;;;;;;2.13;1.83;;;20.20;96.70;;;;;;4963241;28;20039;-76
2021/08/31 02:27:28;;;;;;;2.80;2.05;;;20.20;96.70;;;;;;4958463;28;20134;-77
2021/08/31 02:29:58;;;;;;;3.17;2.13;;;20.20;96.70;;;;;;4964491;28;20049;-77
2021/08/31 02:32:29;;;;;;;3.63;1.60;;;20.20;96.70;;;;;;4969271;28;20065;-76
2021/08/31 02:34:59;;;;;;;2.53;1.75;;;20.20;96.70;;;;;;4969209;28;20072;-77
2021/08/31 02:37:29;;;;;;;2.80;2.00;;;20.20;96.70;;;;;;4945344;28;20564;-76
2021/08/31 02:39:59;;;;;;;1.88;1.45;;;20.20;96.70;;;;;;4959666;28;20043;-76
2021/08/31 02:42:30;;;;;;;2.35;1.65;;;20.30;96.70;;;;;;4959552;28;20054;-76
2021/08/31 02:48:54;;;;;;;3.28;1.83;;;20.30;96.70;;;;;;4941825;28;20047;-76
2021/08/31 02:51:22;;;;;;;4.03;2.00;;;20.20;96.70;;;;;;4938454;28;20481;-76
2021/08/31 02:53:51;;;;;;;3.63;2.30;;;20.10;96.70;;;;;;4941587;28;20243;-76
2021/08/31 02:56:21;;;;;;;2.22;1.92;;;20.00;96.70;;;;;;4938348;29;20060;-76
2021/08/31 02:58:51;;;;;;;3.80;1.90;;;20.10;96.70;;;;;;4935185;28;20031;-76
2021/08/31 03:01:33;;;;;;;2.95;2.35;;;20.10;96.70;;;;;;4940969;28;20134;-76
2021/08/31 03:04:05;;;;;;;2.30;2.10;;;20.10;96.70;;;;;;4931915;29;20039;-76
2021/08/31 03:06:33;;;;;;;2.70;1.90;;;20.10;96.70;;;;;;4942480;29;20053;-76
2021/08/31 03:09:01;;;;;;;3.38;2.08;;;20.10;96.70;;;;;;4940281;28;20051;-76
2021/08/31 03:11:29;;;;;;;2.28;1.92;;;20.00;96.70;;;;;;4922803;28;20054;-76
2021/08/31 03:13:57;;;;;;;2.38;1.73;;;20.00;96.70;;;;;;4943384;28;20429;-77
2021/08/31 03:16:26;;;;;;;2.65;1.50;;;20.00;96.70;;;;;;4940470;28;20039;-76
2021/08/31 03:18:55;;;;;;;5.03;2.42;;;20.00;96.70;;;;;;4938381;28;20055;-76
2021/08/31 03:21:27;;;;;;;3.22;1.80;;;20.00;96.70;;;;;;4940557;29;20526;-76
2021/08/31 03:23:57;;;;;;;3.03;1.85;;;20.00;96.70;;;;;;4936876;28;20425;-76
2021/08/31 03:26:26;;;;;;;3.00;1.90;;;19.90;96.70;;;;;;4940165;28;20418;-77
2021/08/31 03:28:54;;;;;;;2.90;1.90;;;19.90;96.70;;;;;;4925607;28;20055;-77
2021/08/31 03:31:24;;;;;;;4.07;1.95;;;19.80;96.70;;;;;;4936573;28;20069;-78
2021/08/31 03:33:53;;;;;;;2.53;2.03;;;19.70;96.70;;;;;;4960953;28;20047;-76
2021/08/31 03:36:21;;;;;;;3.30;1.88;;;19.70;96.70;;;;;;4938348;28;20055;-76
2021/08/31 03:39:03;;;;;;;2.40;1.70;;;19.60;96.70;;;;;;4941937;28;20107;-76
2021/08/31 03:41:31;;;;;;;3.85;1.98;;;19.50;96.70;;;;;;4942011;29;20086;-76
2021/08/31 03:44:05;;;;;;;3.25;2.17;;;19.50;96.70;;;;;;4942958;29;20070;-76
2021/08/31 03:46:33;;;;;;;2.42;2.05;;;19.50;96.70;;;;;;4940741;28;20047;-76
2021/08/31 03:49:03;;;;;;;3.28;1.70;;;19.50;96.70;;;;;;4966624;28;20129;-76
2021/08/31 03:51:31;;;;;;;1.98;1.67;;;19.50;96.70;;;;;;4960968;28;20082;-76
2021/08/31 03:53:59;;;;;;;2.97;2.17;;;19.50;96.70;;;;;;4959184;28;20042;-76
2021/08/31 03:56:29;;;;;;;2.00;1.80;;;19.40;96.70;;;;;;4961693;28;20031;-76
2021/08/31 03:58:57;;;;;;;2.97;2.10;;;19.50;96.70;;;;;;4955294;28;20054;-76
2021/08/31 04:01:25;;;;;;;2.40;2.20;;;19.50;96.70;;;;;;4956066;28;20039;-76
2021/08/31 04:03:54;;;;;;;2.90;2.38;;;19.40;96.70;;;;;;4957796;28;20039;-77
2021/08/31 04:06:24;;;;;;;3.60;2.50;;;19.30;96.70;;;;;;4959518;28;20402;-76
2021/08/31 04:08:54;;;;;;;2.60;2.15;;;19.20;96.70;;;;;;4956946;28;20035;-76
2021/08/31 04:11:22;;;;;;;3.75;2.20;;;19.20;96.70;;;;;;4969043;28;20561;-76
2021/08/31 04:18:00;;;;;;;3.90;1.95;;;19.30;96.70;;;;;;4913493;29;20584;-77
2021/08/31 04:20:29;;;;;;;3.92;2.17;;;19.40;96.70;;;;;;4927743;29;20235;-76
2021/08/31 04:22:59;;;;;;;3.58;2.35;;;19.30;96.70;;;;;;4887798;29;20623;-76
2021/08/31 04:25:29;;;;;;;3.60;2.08;;;19.40;96.70;;;;;;4907326;29;20135;-76
2021/08/31 04:27:57;;;;;;;3.50;2.75;;;19.50;96.70;;;;;;4925151;29;20060;-76
2021/08/31 04:30:27;;;;;;;4.85;2.70;;;19.40;96.70;;;;;;4897619;29;20054;-76
2021/08/31 04:33:00;;;;;;;4.20;2.30;;;19.40;96.70;;;;;;4895465;29;20477;-76
2021/08/31 04:35:29;;;;;;;4.45;2.28;;;19.20;96.70;;;;;;4910217;29;20059;-76
2021/08/31 04:37:59;;;;;;;5.03;2.60;;;19.20;96.70;;;;;;4907579;29;20586;-76
2021/08/31 04:40:28;;;;;;;2.58;2.10;;;19.20;96.70;;;;;;4911344;29;20048;-76
2021/08/31 04:42:57;;;;;;;2.95;2.17;;;19.30;96.70;;;;;;4913150;29;20158;-76
2021/08/31 04:45:25;;;;;;;6.05;2.40;;;19.30;96.70;;;;;;4912178;29;20106;-77
2021/08/31 04:47:53;;;;;;;2.55;2.25;;;19.20;96.70;;;;;;4907061;29;20062;-76
2021/08/31 04:50:23;;;;;;;3.67;2.30;;;19.30;96.70;;;;;;4913595;29;20059;-76
2021/08/31 04:52:51;;;;;;;4.22;2.67;;;19.30;96.70;;;;;;4912140;28;20067;-77
2021/08/31 04:55:20;;;;;;;3.53;2.65;;;19.20;96.70;;;;;;4960664;28;20106;-78
2021/08/31 04:57:48;;;;;;;3.80;2.58;;;19.20;96.70;;;;;;4963767;28;23349;-77
2021/08/31 05:00:17;;;;;;;3.20;2.53;;;19.20;96.70;;;;;;4965771;28;20035;-78
2021/08/31 05:02:46;;;;;;;3.28;2.58;;;19.10;96.70;;;;;;4948597;28;20501;-78
2021/08/31 05:05:14;;;;;;;3.78;2.50;;;19.10;96.70;;;;;;4966582;28;20069;-78
2021/08/31 05:07:44;;;;;;;5.30;2.63;;;19.10;96.70;;;;;;4978224;28;20065;-78
2021/08/31 05:10:12;;;;;;;4.70;2.70;;;19.10;96.70;;;;;;4957215;28;20488;-78
2021/08/31 05:12:41;;;;;;;3.92;2.63;;;19.10;96.70;;;;;;4956528;28;20516;-78
2021/08/31 05:15:10;;;;;;;3.50;2.67;;;19.20;96.70;;;;;;4968646;28;20407;-78
2021/08/31 05:17:39;;;;;;;5.35;2.78;;;19.20;96.70;;;;;;4966689;28;20074;-78
2021/08/31 05:20:08;;;;;;;4.50;2.55;;;19.30;96.70;;;;;;4958852;28;20040;-78
2021/08/31 05:22:37;;;;;;;2.85;2.30;;;19.40;96.70;;;;;;4966386;28;20039;-78
2021/08/31 05:25:07;;;;;;;5.68;2.20;;;19.50;96.70;;;;;;4960788;28;20054;-78
2021/08/31 05:27:36;;;;;;;3.75;2.50;;;19.50;96.70;;;;;;4957353;28;20097;-78
2021/08/31 05:30:05;;;;;;;3.63;2.40;;;19.50;96.70;;;;;;4963014;28;20415;-78
2021/08/31 05:32:33;;;;;;;2.72;2.33;;;19.60;96.70;;;;;;4948377;28;20059;-78
2021/08/31 05:35:01;;;;;;;3.65;2.15;;;19.60;96.70;;;;;;4962734;28;20059;-78
2021/08/31 05:37:29;;;;;;;3.58;2.20;;;19.60;96.70;;;;;;4958252;28;20500;-78
2021/08/31 05:39:57;;;;;;;4.40;2.80;;;19.70;96.70;;;;;;4958060;28;20047;-78
2021/08/31 05:42:27;;;;;;;4.90;2.35;;;19.70;96.70;;;;;;4962648;28;20043;-78
2021/08/31 05:44:55;;;;;;;2.75;2.00;;;19.70;96.70;;;;;;4943824;28;20050;-78
2021/08/31 05:47:24;;;;;;;4.78;2.10;;;19.70;96.70;;;;;;4969929;28;20116;-78
2021/08/31 05:49:52;;;;;;;4.97;2.45;;;19.70;96.70;;;;;;4951471;28;20058;-78
2021/08/31 05:52:20;;;;;;;2.90;1.88;;;19.80;96.70;;;;;;4959576;28;20057;-78
2021/08/31 05:54:49;;;;;;;3.22;2.35;;;19.80;96.70;;;;;;4959340;28;20298;-78
2021/08/31 05:57:17;;;;;;;2.88;2.33;;;19.80;96.70;;;;;;4960860;28;20043;-77
2021/08/31 05:59:46;;;;;;;4.10;2.47;;;19.70;96.70;;;;;;4967775;28;20114;-78
2021/08/31 06:02:17;;;;;;;3.70;2.33;;;19.60;96.70;;;;;;4978038;28;20047;-78
2021/08/31 06:04:46;;;;;;;4.32;2.47;;;19.70;96.70;;;;;;4965192;28;20057;-77
2021/08/31 06:07:14;;;;;;;3.58;2.33;;;19.80;96.70;;;;;;4960124;28;20043;-78
2021/08/31 06:09:43;;;;;;;3.45;2.53;;;19.90;96.70;;;;;;4976722;28;20070;-78
2021/08/31 06:12:13;;;;;;;3.40;2.35;;;19.90;96.70;;;;;;4960659;28;20038;-78
2021/08/31 06:14:42;;;;;;;1.98;1.77;;;19.90;96.70;;;;;;4963620;28;20493;-78
2021/08/31 06:17:12;;;;;;;4.00;2.47;;;19.90;96.70;;;;;;4957818;28;20598;-78
2021/08/31 06:19:41;;;;;;;3.03;2.58;;;19.90;96.70;;;;;;4940451;28;20059;-78
2021/08/31 06:22:09;;;;;;;3.08;2.30;;;19.90;96.70;;;;;;4964538;28;20039;-78
2021/08/31 06:24:37;;;;;;;3.38;2.53;;;19.90;96.70;;;;;;4985825;28;20597;-78
2021/08/31 06:27:06;;;;;;;3.63;2.10;;;19.90;96.70;;;;;;4957167;28;20047;-78
2021/08/31 06:29:34;;;;;;;3.15;2.45;;;19.90;96.70;;;;;;4961352;28;20039;-78
2021/08/31 06:32:03;;;;;;;6.60;2.58;;;19.90;96.70;;;;;;4961325;28;20035;-77
2021/08/31 06:34:32;;;;;;;4.43;2.80;;;19.90;96.70;;;;;;4954115;28;20043;-78
2021/08/31 06:37:01;;;;;;;4.47;2.35;;;20.00;96.70;;;;;;4957925;28;20512;-78
2021/08/31 06:39:30;;;;;;;2.80;2.50;;;20.10;96.70;;;;;;4962495;28;20042;-78
2021/08/31 06:41:58;;;;;;;3.92;2.72;;;20.20;96.70;;;;;;4959052;28;20043;-78
2021/08/31 06:44:26;;;;;;;3.92;2.50;;;20.30;96.70;;;;;;4960544;28;20046;-77
2021/08/31 06:46:54;;;;;;;4.28;2.95;;;20.40;96.70;;;;;;4960821;28;20051;-77
2021/08/31 06:49:23;;;;;;;6.20;3.10;;;20.50;96.70;;;;;;4957437;28;20117;-78
2021/08/31 06:51:52;;;;;;;3.15;2.53;;;20.60;96.70;;;;;;4961265;28;20047;-77
2021/08/31 06:54:21;;;;;;;4.82;3.10;;;20.70;96.70;;;;;;4960694;28;20134;-77
2021/08/31 06:56:49;;;;;;;4.05;2.88;;;20.70;96.70;;;;;;4946876;28;20046;-77
2021/08/31 06:59:17;;;;;;;3.17;2.75;;;20.70;96.70;;;;;;4962698;28;20036;-79
2021/08/31 07:01:45;;;;;;;5.78;3.47;;;20.80;96.70;;;;;;4947182;28;20130;-75
2021/08/31 07:04:14;;;;;;;5.82;3.55;;;20.80;96.70;;;;;;4964229;28;20074;-77
2021/08/31 07:06:42;;;;;;;4.75;3.15;;;20.90;96.70;;;;;;4945048;28;20070;-77
2021/08/31 07:09:12;;;;;;;5.47;3.22;;;21.00;96.70;;;;;;4961404;28;20042;-77
2021/08/31 07:11:40;;;;;;;3.90;3.15;;;21.10;96.70;;;;;;4960095;28;20038;-77
2021/08/31 07:14:09;;;;;;;4.57;3.03;;;21.20;96.70;;;;;;4961331;28;20537;-77
2021/08/31 07:16:37;;;;;;;4.60;3.00;;;21.20;96.70;;;;;;4959379;28;20047;-77
2021/08/31 07:19:05;;;;;;;3.00;2.70;;;21.20;96.70;;;;;;4958648;28;20386;-78
2021/08/31 07:21:34;;;;;;;6.40;3.15;;;21.30;96.70;;;;;;4964218;28;20042;-88
2021/08/31 07:24:02;;;;;;;3.40;2.67;;;21.30;96.70;;;;;;4966099;28;20066;-89
2021/08/31 07:26:32;;;;;;;4.22;3.08;;;21.40;96.70;;;;;;4946695;28;20038;-87
2021/08/31 07:29:00;;;;;;;4.68;3.05;;;21.50;96.70;;;;;;4966183;28;20046;-81
2021/08/31 07:31:29;;;;;;;3.13;2.70;;;21.60;96.70;;;;;;4946935;28;20117;-91
2021/08/31 07:33:57;;;;;;;3.70;2.83;;;21.50;96.70;;;;;;4967785;28;20082;-87
2021/08/31 07:36:26;;;;;;;4.38;2.40;;;21.50;96.70;;;;;;4964104;28;20056;-87
2021/08/31 07:38:55;;;;;;;6.15;2.80;;;21.60;96.70;;;;;;4964114;28;20054;-86
2021/08/31 07:41:24;;;;;;;6.00;2.72;;;21.60;96.70;;;;;;4963676;28;20510;-85
2021/08/31 07:43:54;;;;;;;3.55;2.38;;;21.70;96.70;;;;;;4966271;28;20039;-78
2021/08/31 07:46:23;;;;;;;4.53;2.50;;;21.80;96.70;;;;;;4957991;28;20501;-81
2021/08/31 07:48:51;;;;;;;4.07;2.50;;;21.90;96.70;;;;;;4956446;28;20055;-81
2021/08/31 07:51:19;;;;;;;3.22;2.30;;;22.00;96.70;;;;;;4955189;28;20061;-81
2021/08/31 07:53:47;;;;;;;3.22;2.42;;;22.10;96.70;;;;;;4958996;28;20054;-81
2021/08/31 07:56:16;;;;;;;5.18;2.20;;;22.20;96.70;;;;;;4961938;28;20039;-80
2021/08/31 07:58:44;;;;;;;2.67;2.20;;;22.30;96.70;;;;;;4965694;28;20149;-80
2021/08/31 08:01:14;;;;;;;3.95;2.50;;;22.40;96.70;;;;;;4968179;28;20046;-82
2021/08/31 08:03:43;;;;;;;3.80;2.65;;;22.50;96.70;;;;;;4966218;28;20051;-80
2021/08/31 08:06:11;;;;;;;3.53;2.22;;;22.50;96.70;;;;;;4970992;28;20129;-80
2021/08/31 08:08:39;;;;;;;5.50;2.45;;;22.60;96.70;;;;;;4962144;28;20061;-81
2021/08/31 08:11:07;;;;;;;2.38;2.17;;;22.60;96.70;;;;;;4963120;28;20421;-81
2021/08/31 08:13:36;;;;;;;4.32;2.58;;;22.70;96.70;;;;;;4950993;28;20505;-81
2021/08/31 08:16:04;;;;;;;3.42;2.42;;;22.70;96.70;;;;;;4965843;28;20098;-81
2021/08/31 08:18:34;;;;;;;3.78;2.20;;;22.70;96.70;;;;;;4956862;28;20910;-81
2021/08/31 08:21:03;;;;;;;2.80;1.83;;;22.80;96.70;;;;;;4963669;28;20069;-81
2021/08/31 08:23:31;;;;;;;3.42;2.00;;;22.90;96.70;;;;;;4961784;28;20102;-81
2021/08/31 08:26:04;;;;;;;4.47;2.05;;;23.00;96.70;;;;;;4967797;28;20055;-81
2021/08/31 08:28:32;;;;;;;2.78;2.05;;;23.00;96.70;;;;;;4962622;28;20043;-81
2021/08/31 08:31:00;;;;;;;2.40;2.08;;;23.10;96.70;;;;;;4965982;28;20526;-81
2021/08/31 08:33:31;;;;;;;3.22;2.28;;;23.20;96.70;;;;;;4963100;28;20354;-81
2021/08/31 08:36:03;;;;;;;2.67;2.13;;;23.20;96.70;;;;;;4967527;28;20903;-81
2021/08/31 08:38:31;;;;;;;3.33;1.90;;;23.20;96.70;;;;;;4959812;28;20458;-80
2021/08/31 08:41:06;;;;;;;2.63;1.77;;;23.30;96.70;;;;;;4965566;28;20512;-80
2021/08/31 08:43:36;;;;;;;3.72;1.73;;;23.30;96.70;;;;;;4964513;28;20481;-81
2021/08/31 08:46:06;;;;;;;3.47;2.03;;;23.30;96.70;;;;;;4949220;28;20579;-79
2021/08/31 08:48:35;;;;;;;2.75;1.73;;;23.40;96.70;;;;;;4963149;28;20138;-82
2021/08/31 08:51:06;;;;;;;4.57;1.83;;;23.60;96.70;;;;;;4982581;28;20046;-82
2021/08/31 08:53:35;;;;;;;4.85;1.63;;;23.60;96.70;;;;;;4960654;28;20070;-82
2021/08/31 08:56:04;;;;;;;3.25;1.67;;;23.70;96.70;;;;;;4968980;28;20055;-80
2021/08/31 08:58:32;;;;;;;3.03;1.80;;;23.60;96.70;;;;;;4961744;28;20042;-81
2021/08/31 09:01:03;;;;;;;4.85;1.73;;;23.80;96.70;;;;;;4975100;28;20047;-81
2021/08/31 09:03:33;;;;;;;4.32;1.73;;;23.80;96.70;;;;;;4959791;28;20550;-81
2021/08/31 09:06:09;;;;;;;2.42;1.38;;;23.90;96.70;;;;;;4966191;28;20098;-81
2021/08/31 09:08:40;;;;;;;2.20;1.40;;;24.00;96.70;;;;;;4965471;28;20047;-81
2021/08/31 09:11:20;;;;;;;1.92;1.35;;;24.10;96.70;;;;;;4977436;28;20049;-80
2021/08/31 09:13:50;;;;;;;2.25;1.70;;;24.20;96.70;;;;;;4962450;28;20054;-81
2021/08/31 09:16:27;;;;;;;2.35;1.40;;;24.30;96.70;;;;;;4957283;28;20046;-81
2021/08/31 09:18:57;;;;;;;4.28;1.45;;;24.40;96.70;;;;;;4964537;28;20062;-81
2021/08/31 09:21:28;;;;;;;5.22;1.55;;;24.40;96.70;;;;;;4961026;28;20050;-83
2021/08/31 09:23:58;;;;;;;4.05;1.50;;;24.50;96.70;;;;;;4965220;28;20055;-81
2021/08/31 09:26:37;;;;;;;5.40;2.28;;;24.60;96.70;;;;;;4961215;28;20477;-82
2021/08/31 09:29:16;;;;;;;3.60;1.70;;;24.70;96.70;;;;;;4966312;28;20101;-82
2021/08/31 09:31:48;;;;;;;2.22;1.70;;;24.80;96.70;;;;;;4969890;28;20039;-82
2021/08/31 09:34:37;;;;;;;3.78;2.00;;;24.80;96.70;;;;;;4961983;28;20064;-82
2021/08/31 09:37:30;;;;;;;5.05;2.00;;;24.90;96.70;;;;;;4961701;28;20046;-82
2021/08/31 09:40:11;;;;;;;5.13;2.30;;;24.80;96.70;;;;;;4962544;28;20047;-82
2021/08/31 09:42:58;;;;;;;2.47;1.70;;;24.80;96.70;;;;;;4974520;28;20050;-81
2021/08/31 09:45:29;;;;;;;2.63;1.48;;;24.80;96.70;;;;;;4959398;28;20094;-82
2021/08/31 09:47:59;;;;;;;5.22;1.90;;;24.90;96.70;;;;;;4966765;28;20517;-82
2021/08/31 09:50:36;;;;;;;11.20;2.42;;;25.10;96.70;;;;;;4947658;28;20055;-82
2021/08/31 09:53:10;;;;;;;3.95;1.85;;;25.30;96.70;;;;;;4965418;28;20043;-82
2021/08/31 09:55:39;;;;;;;3.35;1.63;;;25.50;96.70;;;;;;4966320;28;20361;-82
2021/08/31 09:58:16;;;;;;;3.42;1.70;;;25.60;96.70;;;;;;4956713;28;20414;-82
2021/08/31 10:00:46;;;;;;;3.70;1.90;;;25.70;96.70;;;;;;4963126;28;20082;-82
2021/08/31 10:03:15;;;;;;;4.03;2.03;;;25.70;96.70;;;;;;4965945;28;20039;-82
2021/08/31 10:05:46;;;;;;;4.10;1.58;;;25.70;96.70;;;;;;4962545;28;20043;-82
2021/08/31 10:08:17;;;;;;;3.97;2.22;;;25.90;96.70;;;;;;4973756;28;20043;-82
2021/08/31 10:10:48;;;;;;;4.50;1.90;;;26.10;96.70;;;;;;4958139;28;20055;-82
2021/08/31 10:13:18;;;;;;;3.53;1.95;;;26.30;96.70;;;;;;4971487;28;20054;-82
2021/08/31 10:15:48;;;;;;;5.63;2.08;;;26.50;96.70;;;;;;4963455;28;20057;-83
2021/08/31 10:18:19;;;;;;;2.95;1.58;;;26.50;96.70;;;;;;4976961;28;20560;-83
2021/08/31 10:20:50;;;;;;;2.75;1.75;;;26.70;96.40;;;;;;4960676;28;20141;-82
2021/08/31 10:23:25;;;;;;;3.75;1.50;;;27.00;96.70;;;;;;4947309;28;20510;-82
2021/08/31 10:26:13;;;;;;;3.58;1.42;;;27.10;94.70;;;;;;4961492;28;20706;-82
2021/08/31 10:28:42;;;;;;;2.80;1.40;;;27.10;94.40;;;;;;4964039;28;20049;-83
2021/08/31 10:31:28;;;;;;;4.30;1.90;;;27.30;94.60;;;;;;4965188;28;20374;-83
2021/08/31 10:33:57;;;;;;;3.13;1.27;;;27.40;93.80;;;;;;4960330;28;20476;-81
2021/08/31 10:36:36;;;;;;;1.48;1.10;;;27.50;92.90;;;;;;4947782;28;20208;-83
2021/08/31 10:39:07;;;;;;;3.22;1.05;;;27.60;91.80;;;;;;4947309;28;20049;-83
2021/08/31 10:41:42;;;;;;;2.85;1.52;;;27.70;91.60;;;;;;4963586;28;20061;-82
2021/08/31 10:44:36;;;;;;;2.63;1.27;;;27.90;91.50;;;;;;4961823;28;20047;-83
2021/08/31 10:47:11;;;;;;;3.25;1.17;;;28.10;90.90;;;;;;4945470;28;20711;-83
2021/08/31 10:50:17;;;;;;;2.40;1.15;;;28.10;91.70;;;;;;4954509;28;20039;-82
2021/08/31 10:52:50;;;;;;;3.13;1.33;;;28.20;91.20;;;;;;4958717;28;20059;-82
2021/08/31 10:55:40;;;;;;;1.85;1.23;;;28.20;90.40;;;;;;4962104;28;20074;-82
2021/08/31 10:58:11;;;;;;;2.00;1.45;;;28.40;90.00;;;;;;4962931;28;20047;-82
2021/08/31 11:01:00;;;;;;;1.20;1.00;;;28.60;89.30;;;;;;4977733;28;20136;-83
2021/08/31 11:03:33;;;;;;;2.67;1.20;;;28.50;89.60;;;;;;4965098;28;20078;-83
2021/08/31 11:06:27;;;;;;;3.60;1.20;;;28.70;88.80;;;;;;4964631;28;20057;-82
2021/08/31 11:09:24;;;;;;;1.45;1.17;;;28.60;89.30;;;;;;4963487;28;20054;-83
2021/08/31 11:12:08;;;;;;;3.60;1.33;;;28.80;89.10;;;;;;4962343;28;20086;-83
2021/08/31 11:14:51;;;;;;;2.78;1.10;;;28.50;89.30;;;;;;4962666;28;20125;-83
2021/08/31 11:17:33;;;;;;;2.72;0.95;;;28.50;89.40;;;;;;4957679;28;20066;-83
2021/08/31 11:20:25;;;;;;;2.67;1.27;;;28.60;89.00;;;;;;4962404;28;20517;-82
2021/08/31 11:23:04;;;;;;;2.28;1.25;;;28.80;88.10;;;;;;4961905;28;20067;-83
2021/08/31 11:25:35;;;;;;;3.08;1.30;;;28.50;88.70;;;;;;4957442;28;20038;-82
2021/08/31 11:28:07;;;;;;;3.88;1.13;;;28.30;88.80;;;;;;4963556;28;20058;-82
2021/08/31 11:30:47;;;;;;;2.08;1.40;;;28.00;89.00;;;;;;4954356;28;20070;-82
2021/08/31 11:33:19;;;;;;;2.40;1.10;;;28.00;89.50;;;;;;4951043;28;20591;-82
2021/08/31 11:35:51;;;;;;;2.63;1.20;;;28.10;89.30;;;;;;4961672;28;20108;-82
2021/08/31 11:38:28;;;;;;;2.78;1.30;;;28.50;88.70;;;;;;4963865;28;20130;-82
2021/08/31 11:41:15;;;;;;;1.60;0.90;;;28.80;88.70;;;;;;4965212;28;20413;-83
2021/08/31 11:43:45;;;;;;;;;;;29.10;87.70;;;;;;4962347;28;20043;-83
2021/08/31 11:46:18;;;;;;;1.90;1.30;;;29.30;87.10;;;;;;4966776;28;19933;-83
2021/08/31 11:48:46;;;;;;;2.83;1.48;;;29.30;86.60;;;;;;4963229;28;20062;-83
2021/08/31 11:51:19;;;;;;;2.03;1.38;;;29.10;87.40;;;;;;4963643;28;20046;-82
2021/08/31 11:54:01;;;;;;;2.42;1.20;;;29.30;85.70;;;;;;4962370;28;20577;-83
2021/08/31 11:56:30;;;;;;;2.65;1.48;;;29.40;86.80;;;;;;4960476;28;20049;-82
2021/08/31 11:59:00;;;;;;;2.97;1.50;;;29.10;87.00;;;;;;4961348;28;20054;-82
2021/08/31 12:01:30;;;;;;;2.95;1.15;;;29.00;88.20;;;;;;4961941;28;20761;-83
2021/08/31 12:04:17;;;;;;;2.10;1.13;;;28.70;88.70;;;;;;4970613;28;20042;-82
2021/08/31 12:06:47;;;;;;;2.60;1.27;;;28.50;88.70;;;;;;4954140;28;20047;-84
2021/08/31 12:09:17;;;;;;;3.67;1.50;;;28.90;88.60;;;;;;4957453;28;20118;-82
2021/08/31 12:11:54;;;;;;;2.58;1.38;;;28.70;88.30;;;;;;4963456;28;20043;-86
2021/08/31 12:14:24;;;;;;;1.95;1.45;;;28.80;88.10;;;;;;4959333;28;20047;-85
2021/08/31 12:16:52;;;;;;;4.10;1.52;;;29.20;88.40;;;;;;4982101;28;20500;-86
2021/08/31 12:19:22;;;;;;;4.90;2.30;;;29.50;87.30;;;;;;4962144;28;20650;-86
2021/08/31 12:22:10;;;;;;;4.47;2.28;;;29.40;87.50;;;;;;4996035;28;20322;-87
2021/08/31 12:24:40;;;;;;;3.78;1.60;;;29.50;86.50;;;;;;4966228;28;20061;-85
2021/08/31 12:27:12;;;;;;;4.43;1.90;;;29.50;86.40;;;;;;4963833;28;20101;-85
2021/08/31 12:29:54;;;;;;;3.72;1.77;;;29.50;87.00;;;;;;4963089;28;20042;-85
2021/08/31 12:32:24;;;;;;;4.15;1.73;;;29.30;86.70;;;;;;4977060;28;20330;-87
2021/08/31 12:34:54;;;;;;;5.50;1.85;;;29.00;88.10;;;;;;4959808;28;20069;-85
2021/08/31 12:37:32;;;;;;;2.92;1.70;;;29.20;87.50;;;;;;4964848;28;20045;-85
2021/08/31 12:40:17;;;;;;;4.13;2.38;;;29.10;88.00;;;;;;4941181;28;20126;-85
2021/08/31 12:42:47;;;;;;;3.72;2.17;;;28.50;88.20;;;;;;4962873;28;20508;-82
2021/08/31 12:45:25;;;;;;;6.57;2.42;;;28.60;88.40;;;;;;4946997;28;20538;-82
2021/08/31 12:47:56;;;;;;;3.90;1.83;;;28.60;88.70;;;;;;4957927;28;20077;-82
2021/08/31 12:50:26;;;;;;;2.70;1.92;;;28.50;88.50;;;;;;4963363;28;20420;-83
2021/08/31 12:53:07;;;;;;;3.33;1.85;;;28.40;89.10;;;;;;4963317;28;20051;-82
2021/08/31 12:55:36;;;;;;;2.63;1.70;;;28.20;89.70;;;;;;4974175;28;20464;-83
2021/08/31 12:58:27;;;;;;;1.98;1.30;;;28.10;89.50;;;;;;4967721;28;20073;-82
2021/08/31 13:01:08;;;;;;;2.05;1.60;;;28.40;89.50;;;;;;4948735;28;20155;-82
2021/08/31 13:03:39;;;;;;;2.10;1.88;;;28.40;88.70;;;;;;4959735;28;20388;-83
2021/08/31 13:06:34;;;;;;;3.88;1.63;;;28.20;88.80;;;;;;4971009;28;20504;-82
2021/08/31 13:09:06;;;;;;;4.70;1.70;;;28.20;88.50;;;;;;4960754;28;20118;-82
2021/08/31 13:11:34;;;;;;;3.63;1.52;;;28.40;88.70;;;;;;4961439;28;20184;-82
2021/08/31 13:14:11;;;;;;;3.05;1.52;;;28.30;88.30;;;;;;4962238;28;20027;-82
2021/08/31 13:16:40;;;;;;;;;;;28.30;88.60;;;;;;4976475;28;20042;-82
2021/08/31 13:19:09;;;;;;;1.40;1.02;;;28.50;88.40;;;;;;4978310;28;19926;-82
2021/08/31 13:21:38;;;;;;;3.78;1.30;;;28.60;87.70;;;;;;4963006;28;20051;-84